createdAt,value
2019-02-25T00:00:26.176Z,12.33
2019-02-25T00:02:56.742Z,13.43
2019-02-25T00:05:28.360Z,11.43
2019-02-25T00:07:58.785Z,12.28
2019-02-25T00:10:29.924Z,12.20
2019-02-25T00:13:01.478Z,12.68
2019-02-25T00:15:32.514Z,12.98
2019-02-25T00:18:03.762Z,11.22
2019-02-25T00:20:35.523Z,13.30
2019-02-25T00:23:06.492Z,13.00
2019-02-25T00:25:38.838Z,14.70
2019-02-25T00:28:10.274Z,13.45
2019-02-25T00:30:41.007Z,14.33
2019-02-25T00:33:16.039Z,14.85
2019-02-25T00:35:48.612Z,16.30
2019-02-25T00:38:20.169Z,18.40
2019-02-25T00:40:51.003Z,19.00
2019-02-25T00:43:21.834Z,19.67
2019-02-25T00:45:53.586Z,21.50
2019-02-25T00:48:24.120Z,20.35
2019-02-25T00:50:55.467Z,21.77
2019-02-25T00:53:26.120Z,21.42
2019-02-25T00:55:56.932Z,20.65
2019-02-25T00:58:28.416Z,21.20
2019-02-25T01:01:00.642Z,18.87
2019-02-25T01:03:34.252Z,21.20
2019-02-25T01:06:04.985Z,19.27
2019-02-25T01:08:35.718Z,18.20
2019-02-25T01:11:09.829Z,20.92
2019-02-25T01:13:40.802Z,18.27
2019-02-25T01:16:12.998Z,19.15
2019-02-25T01:18:45.399Z,18.55
2019-02-25T01:21:16.960Z,17.85
2019-02-25T01:23:48.905Z,20.37
2019-02-25T01:26:20.677Z,17.13
2019-02-25T01:28:52.944Z,18.92
2019-02-25T01:31:25.517Z,18.60
2019-02-25T01:33:56.254Z,18.87
2019-02-25T01:36:27.500Z,19.67
2019-02-25T01:38:58.535Z,18.77
2019-02-25T01:41:29.576Z,21.80
2019-02-25T01:44:00.307Z,22.30
2019-02-25T01:46:30.855Z,22.87
2019-02-25T01:49:03.067Z,23.18
2019-02-25T01:51:34.581Z,25.12
2019-02-25T01:54:05.967Z,25.15
2019-02-25T01:56:36.732Z,22.70
2019-02-25T01:59:07.871Z,20.92
2019-02-25T02:01:38.609Z,19.65
2019-02-25T02:04:10.366Z,20.55
2019-02-25T02:06:44.064Z,23.10
2019-02-25T02:09:14.905Z,18.75
2019-02-25T02:11:46.466Z,20.35
2019-02-25T02:14:17.598Z,22.35
2019-02-25T02:16:48.229Z,25.80
2019-02-25T02:19:21.622Z,23.10
2019-02-25T02:21:53.075Z,22.45
2019-02-25T02:24:24.115Z,29.00
2019-02-25T02:26:54.840Z,30.05
2019-02-25T02:29:25.778Z,25.65
2019-02-25T02:31:57.326Z,27.80
2019-02-25T02:34:28.367Z,26.23
2019-02-25T02:36:59.995Z,21.65
2019-02-25T02:39:30.247Z,22.42
2019-02-25T02:42:15.000Z,21.23
2019-02-25T02:44:50.752Z,22.58
2019-02-25T02:47:36.235Z,20.75
2019-02-25T02:50:15.878Z,22.90
2019-02-25T02:52:46.914Z,20.77
2019-02-25T02:55:17.347Z,20.95
2019-02-25T02:57:48.176Z,25.20
2019-02-25T03:00:20.142Z,25.35
2019-02-25T03:02:52.412Z,25.02
2019-02-25T03:05:23.345Z,25.10
2019-02-25T03:07:56.125Z,20.10
2019-02-25T03:10:28.496Z,24.50
2019-02-25T03:12:58.828Z,24.87
2019-02-25T03:15:29.960Z,24.45
2019-02-25T03:18:02.847Z,23.00
2019-02-25T03:20:34.092Z,24.52
2019-02-25T03:23:04.721Z,23.62
2019-02-25T03:25:36.061Z,23.70
2019-02-25T03:28:07.751Z,22.87
2019-02-25T03:30:38.560Z,23.83
2019-02-25T03:33:10.006Z,22.85
2019-02-25T03:35:40.426Z,21.27
2019-02-25T03:38:11.847Z,20.65
2019-02-25T03:40:44.349Z,20.05
2019-02-25T03:43:17.780Z,18.60
2019-02-25T03:45:48.354Z,18.80
2019-02-25T03:48:19.111Z,17.95
2019-02-25T03:50:50.049Z,18.15
2019-02-25T03:53:20.774Z,16.87
2019-02-25T03:55:52.225Z,17.82
2019-02-25T03:58:22.735Z,16.55
2019-02-25T04:00:54.410Z,17.17
2019-02-25T04:03:26.676Z,16.60
2019-02-25T04:05:58.449Z,16.90
2019-02-25T04:08:28.754Z,16.55
2019-02-25T04:10:59.589Z,16.23
2019-02-25T04:13:33.396Z,17.82
2019-02-25T04:16:04.438Z,16.85
2019-02-25T04:18:36.501Z,16.45
2019-02-25T04:21:07.233Z,15.18
2019-02-25T04:23:38.371Z,17.67
2019-02-25T04:26:09.341Z,16.87
2019-02-25T04:28:39.838Z,16.37
2019-02-25T04:31:11.782Z,17.37
2019-02-25T04:33:42.123Z,16.37
2019-02-25T04:36:14.375Z,16.97
2019-02-25T04:38:45.094Z,16.67
2019-02-25T04:41:16.982Z,16.60
2019-02-25T04:43:47.614Z,16.75
2019-02-25T04:46:20.700Z,16.62
2019-02-25T04:48:51.233Z,16.93
2019-02-25T04:51:22.167Z,16.32
2019-02-25T04:53:52.817Z,15.72
2019-02-25T04:56:25.341Z,15.55
2019-02-25T04:58:59.284Z,16.27
2019-02-25T05:01:30.932Z,17.42
2019-02-25T05:04:02.073Z,15.83
2019-02-25T05:06:35.161Z,16.67
2019-02-25T05:09:06.546Z,15.70
2019-02-25T05:11:37.550Z,17.92
2019-02-25T05:14:11.246Z,15.93
2019-02-25T05:16:41.790Z,15.85
2019-02-25T05:19:13.025Z,16.12
2019-02-25T05:21:43.651Z,15.72
2019-02-25T05:24:17.043Z,15.70
2019-02-25T05:26:49.727Z,16.12
2019-02-25T05:29:20.971Z,15.93
2019-02-25T05:31:52.526Z,15.30
2019-02-25T05:34:23.468Z,14.98
2019-02-25T05:36:56.241Z,16.25
2019-02-25T05:39:27.385Z,17.27
2019-02-25T05:41:58.321Z,17.48
2019-02-25T05:44:29.157Z,17.82
2019-02-25T05:47:00.091Z,18.52
2019-02-25T05:49:31.063Z,17.70
2019-02-25T05:52:01.765Z,17.92
2019-02-25T05:54:32.497Z,17.30
2019-02-25T05:57:04.559Z,16.70
2019-02-25T05:59:36.017Z,15.25
2019-02-25T06:02:06.640Z,14.80
2019-02-25T06:04:38.479Z,15.75
2019-02-25T06:07:10.483Z,15.25
2019-02-25T06:09:42.318Z,14.73
2019-02-25T06:12:12.953Z,15.50
2019-02-25T06:14:43.780Z,14.30
2019-02-25T06:17:14.611Z,15.10
2019-02-25T06:19:46.167Z,15.90
2019-02-25T06:22:16.902Z,14.83
2019-02-25T06:24:47.753Z,15.43
2019-02-25T06:27:19.602Z,16.10
2019-02-25T06:29:50.735Z,16.25
2019-02-25T06:32:22.495Z,14.65
2019-02-25T06:34:53.257Z,15.98
2019-02-25T06:37:27.400Z,15.38
2019-02-25T06:39:58.140Z,15.03
2019-02-25T06:42:29.423Z,15.18
2019-02-25T06:45:00.869Z,14.33
2019-02-25T06:47:31.295Z,16.20
2019-02-25T06:50:07.186Z,17.07
2019-02-25T06:52:37.777Z,12.28
2019-02-25T06:55:13.431Z,17.17
2019-02-25T06:57:43.846Z,16.82
2019-02-25T07:00:16.433Z,18.57
2019-02-25T07:02:47.565Z,16.15
2019-02-25T07:05:32.221Z,16.50
2019-02-25T07:08:13.914Z,16.12
2019-02-25T07:10:55.813Z,16.57
2019-02-25T07:13:36.719Z,15.40
2019-02-25T07:16:25.803Z,15.45
2019-02-25T07:19:10.604Z,15.45
2019-02-25T07:21:43.757Z,16.50
2019-02-25T07:24:28.142Z,15.72
2019-02-25T07:27:17.003Z,15.93
2019-02-25T07:29:53.068Z,15.65
2019-02-25T07:32:41.303Z,16.40
2019-02-25T07:35:13.576Z,17.30
2019-02-25T07:37:51.564Z,17.17
2019-02-25T07:40:29.062Z,17.20
2019-02-25T07:43:02.464Z,17.42
2019-02-25T07:45:39.232Z,17.42
2019-02-25T07:48:21.337Z,19.02
2019-02-25T07:50:56.977Z,19.15
2019-02-25T07:53:47.530Z,19.57
2019-02-25T07:56:23.529Z,20.20
2019-02-25T07:59:05.423Z,20.80
2019-02-25T08:01:47.441Z,20.88
2019-02-25T08:04:27.324Z,22.45
2019-02-25T08:07:15.612Z,21.85
2019-02-25T08:09:53.187Z,19.37
2019-02-25T08:12:26.400Z,18.95
2019-02-25T08:15:08.963Z,18.12
2019-02-25T08:20:23.585Z,16.20
2019-02-25T08:23:03.629Z,17.40
2019-02-25T08:25:35.835Z,16.35
2019-02-25T08:28:09.614Z,15.35
2019-02-25T08:33:24.786Z,14.33
2019-02-25T08:36:03.103Z,14.83
2019-02-25T08:38:37.719Z,14.38
2019-02-25T08:41:12.657Z,15.20
2019-02-25T08:43:48.610Z,14.03
2019-02-25T08:46:22.826Z,14.05
2019-02-25T08:49:00.535Z,13.38
2019-02-25T08:51:32.790Z,14.70
2019-02-25T08:54:05.569Z,15.45
2019-02-25T08:56:36.216Z,13.75
2019-02-25T08:59:07.543Z,13.60
2019-02-25T09:01:38.018Z,13.93
2019-02-25T09:04:09.115Z,14.85
2019-02-25T09:06:40.670Z,14.13
2019-02-25T09:09:11.062Z,14.25
2019-02-25T09:11:41.515Z,14.18
2019-02-25T09:14:13.077Z,13.70
2019-02-25T09:16:43.903Z,14.45
2019-02-25T09:19:14.943Z,15.00
2019-02-25T09:21:47.007Z,14.40
2019-02-25T09:24:17.432Z,15.32
2019-02-25T09:26:48.365Z,13.93
2019-02-25T09:29:20.638Z,15.03
2019-02-25T09:31:52.490Z,15.38
2019-02-25T09:34:24.967Z,15.72
2019-02-25T09:36:56.977Z,16.87
2019-02-25T09:39:28.378Z,16.27
2019-02-25T09:41:59.329Z,15.05
2019-02-25T09:44:31.685Z,15.50
2019-02-25T09:47:02.113Z,16.10
2019-02-25T09:49:33.152Z,16.67
2019-02-25T09:52:03.902Z,16.55
2019-02-25T09:54:35.655Z,17.73
2019-02-25T09:57:08.308Z,17.15
2019-02-25T09:59:40.634Z,18.77
2019-02-25T10:02:13.294Z,13.28
2019-02-25T10:04:43.696Z,18.42
2019-02-25T10:07:15.860Z,18.27
2019-02-25T10:09:49.189Z,17.60
2019-02-25T10:12:20.908Z,19.23
2019-02-25T10:14:51.936Z,17.70
2019-02-25T10:17:24.192Z,18.73
2019-02-25T10:19:54.440Z,20.40
2019-02-25T10:22:27.145Z,21.37
2019-02-25T10:24:59.185Z,19.87
2019-02-25T10:27:29.938Z,18.65
2019-02-25T10:30:04.049Z,19.07
2019-02-25T10:32:35.475Z,20.52
2019-02-25T10:35:10.428Z,19.87
2019-02-25T10:37:45.306Z,19.42
2019-02-25T10:40:17.778Z,20.08
2019-02-25T10:42:48.673Z,21.30
2019-02-25T10:45:20.552Z,22.58
2019-02-25T10:47:51.678Z,21.30
2019-02-25T10:50:23.414Z,22.35
2019-02-25T10:53:03.272Z,20.32
2019-02-25T10:55:32.545Z,19.73
2019-02-25T10:58:06.154Z,19.57
2019-02-25T11:00:37.790Z,19.55
2019-02-25T11:03:10.719Z,18.27
2019-02-25T11:05:41.826Z,18.98
2019-02-25T11:08:14.817Z,19.98
2019-02-25T11:10:48.650Z,14.53
2019-02-25T11:13:20.163Z,19.92
2019-02-25T11:15:52.439Z,17.82
2019-02-25T11:18:24.539Z,20.45
2019-02-25T11:21:01.278Z,21.68
2019-02-25T11:23:32.629Z,20.52
2019-02-25T11:26:09.239Z,21.33
2019-02-25T11:28:41.245Z,19.55
2019-02-25T11:31:11.950Z,21.60
2019-02-25T11:33:43.639Z,21.15
2019-02-25T11:36:15.421Z,22.37
2019-02-25T11:38:47.052Z,19.05
2019-02-25T11:41:17.994Z,19.23
2019-02-25T11:43:52.941Z,20.70
2019-02-25T11:46:22.532Z,22.82
2019-02-25T11:48:53.269Z,21.73
2019-02-25T11:51:24.106Z,23.40
2019-02-25T11:53:56.466Z,22.73
2019-02-25T11:56:28.433Z,26.62
2019-02-25T11:58:59.013Z,27.30
2019-02-25T12:01:29.893Z,29.23
2019-02-25T12:04:01.957Z,30.00
2019-02-25T12:06:32.999Z,30.50
2019-02-25T12:09:06.710Z,25.00
2019-02-25T12:11:37.637Z,24.95
2019-02-25T12:14:08.272Z,26.15
2019-02-25T12:16:39.828Z,26.40
2019-02-25T12:19:17.801Z,26.77
2019-02-25T12:21:45.689Z,25.50
2019-02-25T12:24:16.539Z,26.27
2019-02-25T12:26:48.744Z,26.82
2019-02-25T12:29:20.243Z,26.87
2019-02-25T12:31:53.584Z,24.15
2019-02-25T12:34:25.188Z,25.75
2019-02-25T12:36:55.710Z,25.97
2019-02-25T12:39:27.172Z,28.25
2019-02-25T12:41:58.201Z,31.62
2019-02-25T12:44:28.929Z,30.43
2019-02-25T12:46:59.565Z,28.57
2019-02-25T12:49:30.313Z,25.50
2019-02-25T12:52:02.094Z,25.12
2019-02-25T12:54:32.279Z,26.30
2019-02-25T12:57:03.319Z,25.40
2019-02-25T12:59:34.604Z,22.75
2019-02-25T13:02:05.492Z,21.52
2019-02-25T13:04:36.946Z,21.95
2019-02-25T13:07:09.516Z,24.55
2019-02-25T13:09:39.842Z,26.35
2019-02-25T13:12:10.576Z,26.60
2019-02-25T13:14:42.029Z,25.95
2019-02-25T13:17:14.095Z,25.82
2019-02-25T13:19:46.971Z,31.20
2019-02-25T13:22:20.460Z,29.75
2019-02-25T13:24:51.406Z,29.98
2019-02-25T13:27:22.771Z,32.13
2019-02-25T13:29:53.285Z,33.78
2019-02-25T13:32:25.861Z,30.77
2019-02-25T13:34:58.342Z,31.93
2019-02-25T13:37:29.923Z,31.75
2019-02-25T13:40:02.772Z,33.30
2019-02-25T13:42:33.101Z,30.48
2019-02-25T13:45:07.109Z,33.25
2019-02-25T13:47:38.780Z,27.95
2019-02-25T13:50:14.713Z,31.85
2019-02-25T13:52:48.231Z,29.27
2019-02-25T13:55:19.202Z,28.27
2019-02-25T13:57:50.079Z,27.00
2019-02-25T14:00:28.304Z,26.85
2019-02-25T14:02:59.840Z,27.52
2019-02-25T14:05:30.878Z,28.10
2019-02-25T14:08:01.925Z,29.92
2019-02-25T14:10:32.569Z,28.25
2019-02-25T14:13:04.100Z,27.82
2019-02-25T14:15:34.947Z,29.92
2019-02-25T14:18:05.770Z,32.63
2019-02-25T14:20:37.419Z,32.53
2019-02-25T14:23:08.157Z,32.78
2019-02-25T14:25:41.508Z,34.65
2019-02-25T14:28:11.210Z,34.05
2019-02-25T14:30:44.244Z,36.88
2019-02-25T14:33:17.126Z,32.93
2019-02-25T14:35:50.309Z,33.50
2019-02-25T14:38:22.715Z,31.42
2019-02-25T14:40:56.329Z,23.25
2019-02-25T14:43:27.462Z,29.95
2019-02-25T14:45:58.952Z,31.27
2019-02-25T14:48:32.846Z,32.35
2019-02-25T14:51:05.162Z,33.35
2019-02-25T14:53:35.687Z,31.05
2019-02-25T14:56:07.350Z,33.30
2019-02-25T14:58:42.607Z,31.55
2019-02-25T15:01:13.829Z,31.65
2019-02-25T15:03:47.015Z,31.97
2019-02-25T15:06:19.980Z,33.85
2019-02-25T15:08:50.328Z,30.50
2019-02-25T15:11:21.970Z,30.52
2019-02-25T15:13:54.345Z,31.25
2019-02-25T15:16:25.092Z,31.50
2019-02-25T15:18:58.616Z,31.15
2019-02-25T15:21:29.017Z,35.10
2019-02-25T15:24:02.592Z,36.98
2019-02-25T15:26:42.570Z,36.63
2019-02-25T15:29:09.221Z,35.33
2019-02-25T15:31:39.915Z,35.37
2019-02-25T15:34:13.045Z,35.13
2019-02-25T15:36:45.794Z,33.98
2019-02-25T15:39:17.853Z,33.28
2019-02-25T15:41:49.170Z,31.45
2019-02-25T15:44:20.559Z,32.13
2019-02-25T15:46:51.484Z,30.25
2019-02-25T15:49:24.401Z,31.82
2019-02-25T15:51:55.505Z,31.73
2019-02-25T15:54:28.981Z,35.45
2019-02-25T15:56:58.711Z,32.48
2019-02-25T17:11:53.452Z,28.07
2019-02-25T17:14:25.650Z,29.67
2019-02-25T17:16:57.018Z,29.87
2019-02-25T17:19:28.408Z,31.50
2019-02-25T17:21:58.690Z,30.43
2019-02-25T17:24:32.538Z,33.85
2019-02-25T17:27:04.562Z,31.60
2019-02-25T17:29:36.075Z,31.63
2019-02-25T17:32:08.420Z,32.93
2019-02-25T17:34:40.151Z,31.93
2019-02-25T17:37:12.656Z,33.07
2019-02-25T17:39:44.310Z,30.85
2019-02-25T17:42:16.891Z,33.45
2019-02-25T17:44:49.186Z,35.58
2019-02-25T17:47:24.299Z,32.90
2019-02-25T17:49:55.686Z,27.98
2019-02-25T17:52:29.438Z,33.58
2019-02-25T17:55:02.146Z,36.83
2019-02-25T17:57:34.967Z,35.15
2019-02-25T18:00:18.424Z,35.38
2019-02-25T18:02:48.855Z,35.65
2019-02-25T18:05:20.821Z,36.75
2019-02-25T18:07:51.337Z,36.58
2019-02-25T18:10:23.046Z,37.80
2019-02-25T18:12:56.367Z,40.73
2019-02-25T18:15:30.557Z,29.85
2019-02-25T18:18:01.131Z,39.33
2019-02-25T18:20:32.277Z,40.03
2019-02-25T18:23:04.952Z,43.48
2019-02-25T18:25:37.643Z,45.98
2019-02-25T18:28:08.480Z,45.00
2019-02-25T18:30:40.425Z,48.83
2019-02-25T18:33:11.943Z,48.85
2019-02-25T18:35:45.732Z,46.70
2019-02-25T18:38:16.222Z,47.00
2019-02-25T18:40:46.844Z,50.12
2019-02-25T18:43:20.054Z,50.52
2019-02-25T18:45:51.485Z,53.25
2019-02-25T18:48:24.909Z,50.67
2019-02-25T18:50:58.504Z,51.98
2019-02-25T18:53:28.017Z,56.50
2019-02-25T18:55:58.841Z,73.52
2019-02-25T18:58:31.005Z,70.97
2019-02-25T19:01:06.628Z,78.67
2019-02-25T19:03:37.970Z,76.37
2019-02-25T19:06:08.294Z,82.67
2019-02-25T19:08:43.239Z,75.37
2019-02-25T19:11:15.009Z,60.65
2019-02-25T19:13:48.229Z,61.88
2019-02-25T19:16:19.758Z,57.85
2019-02-25T19:18:51.990Z,57.98
2019-02-25T19:21:27.518Z,53.33
2019-02-25T19:23:58.133Z,53.23
2019-02-25T19:26:29.102Z,49.88
2019-02-25T19:29:00.652Z,51.30
2019-02-25T19:31:31.285Z,48.13
2019-02-25T19:34:05.758Z,48.28
2019-02-25T19:36:39.060Z,49.20
2019-02-25T19:39:13.854Z,48.78
2019-02-25T19:44:15.500Z,45.43
2019-02-25T19:46:50.625Z,45.78
2019-02-25T19:49:23.617Z,44.50
2019-02-25T19:51:54.152Z,47.50
2019-02-25T19:54:25.185Z,45.45
2019-02-25T19:56:57.963Z,46.73
2019-02-25T19:59:31.016Z,47.23
2019-02-25T20:02:12.377Z,46.83
2019-02-25T20:04:45.042Z,46.10
2019-02-25T20:07:20.085Z,47.13
2019-02-25T20:09:50.603Z,47.83
2019-02-25T20:12:21.889Z,45.25
2019-02-25T20:14:53.365Z,46.80
2019-02-25T20:17:26.566Z,46.53
2019-02-25T20:19:56.895Z,46.23
2019-02-25T20:22:27.709Z,48.17
2019-02-25T20:24:59.537Z,45.33
2019-02-25T20:27:30.301Z,45.10
2019-02-25T20:30:03.164Z,46.18
2019-02-25T20:32:36.488Z,44.88
2019-02-25T20:35:10.173Z,45.00
2019-02-25T20:37:41.442Z,44.13
2019-02-25T20:40:17.122Z,44.45
2019-02-25T20:42:49.083Z,45.73
2019-02-25T20:45:28.029Z,44.23
2019-02-25T20:48:01.772Z,40.88
2019-02-25T20:50:32.394Z,41.27
2019-02-25T20:53:09.178Z,41.13
2019-02-25T20:55:38.974Z,41.18
2019-02-25T20:58:11.524Z,41.83
2019-02-25T21:00:46.371Z,40.25
2019-02-25T21:03:18.937Z,41.00
2019-02-25T21:05:51.633Z,40.47
2019-02-25T21:08:23.809Z,42.17
2019-02-25T21:10:55.354Z,41.37
2019-02-25T21:13:28.486Z,41.53
2019-02-25T21:16:00.416Z,40.65
2019-02-25T21:18:33.182Z,40.88
2019-02-25T21:21:05.594Z,40.20
2019-02-25T21:23:36.185Z,40.83
2019-02-25T21:26:09.240Z,40.83
2019-02-25T21:28:40.502Z,38.53
2019-02-25T21:31:14.587Z,38.35
2019-02-25T21:33:49.840Z,38.53
2019-02-25T21:36:18.144Z,38.67
2019-02-25T21:38:50.023Z,40.23
2019-02-25T21:41:21.347Z,42.55
2019-02-25T21:43:54.098Z,40.50
2019-02-25T21:46:27.007Z,40.10
2019-02-25T21:49:01.609Z,41.20
2019-02-25T21:51:35.170Z,41.65
2019-02-25T21:54:06.763Z,40.45
2019-02-25T21:56:37.955Z,40.92
2019-02-25T21:59:14.548Z,43.10
2019-02-25T22:01:45.022Z,44.70
2019-02-25T22:04:17.983Z,42.08
2019-02-25T22:06:50.954Z,43.38
2019-02-25T22:09:35.465Z,43.52
2019-02-25T22:11:56.432Z,41.30
2019-02-25T22:14:27.695Z,40.75
2019-02-25T22:17:01.008Z,41.68
2019-02-25T22:19:32.476Z,32.07
2019-02-25T22:22:04.952Z,41.85
2019-02-25T22:24:37.946Z,43.25
2019-02-25T22:27:11.935Z,42.58
2019-02-25T22:29:43.057Z,48.87
2019-02-25T22:32:17.466Z,52.43
2019-02-25T22:34:48.202Z,51.58
2019-02-25T22:37:22.763Z,54.38
2019-02-25T22:39:54.538Z,52.50
2019-02-25T22:42:26.926Z,51.45
2019-02-25T22:44:57.786Z,51.25
2019-02-25T22:47:28.414Z,53.73
2019-02-25T22:49:59.253Z,55.58
2019-02-25T22:52:31.514Z,60.08
2019-02-25T22:55:05.949Z,65.72
2019-02-25T22:57:36.981Z,63.00
2019-02-25T23:00:22.870Z,61.85
2019-02-25T23:02:54.614Z,57.80
2019-02-25T23:05:26.581Z,57.55
2019-02-25T23:07:59.464Z,60.88
2019-02-25T23:10:30.709Z,58.83
2019-02-25T23:13:01.012Z,59.60
2019-02-25T23:15:33.611Z,56.10
2019-02-25T23:18:08.106Z,56.53
2019-02-25T23:20:37.455Z,52.83
2019-02-25T23:23:08.463Z,47.38
2019-02-25T23:25:39.711Z,47.00
2019-02-25T23:28:10.140Z,40.73
2019-02-25T23:30:40.781Z,39.40
2019-02-25T23:33:14.448Z,37.42
2019-02-25T23:35:46.937Z,36.28
2019-02-25T23:38:18.491Z,26.90
2019-02-25T23:40:50.934Z,37.10
2019-02-25T23:43:21.701Z,37.88
2019-02-25T23:45:53.159Z,35.75
2019-02-25T23:48:26.449Z,37.08
2019-02-25T23:50:57.795Z,34.63
2019-02-25T23:53:32.370Z,34.25
2019-02-25T23:56:02.940Z,35.10
2019-02-25T23:58:38.335Z,33.73
